Time;durP1;ratioP1;P1;durP2;ratioP2;P2;SDS_P1;SDS_P2;PMS_P1;PMS_P2;Temp;Humidity;BMP_temperature;BMP_pressure;BME280_temperature;BME280_humidity;BME280_pressure;Samples;Min_cycle;Max_cycle;Signal;HPM_P1;HPM_P2
2023/07/28 00:02:58;;;;;;;;;;;;;;;;;;;;;
2023/07/28 00:09:10;;;;;;;;;;;;;;;;;;;;;
2023/07/28 00:14:27;;;;;;;1.90;1.80;;;;;;;17.93;60.98;98017.11;226592;1275;22521;-75
2023/07/28 00:20:03;;;;;;;4.50;2.30;;;;;;;17.92;61.31;98014.25;226623;1273;22573;-75
2023/07/28 00:25:34;;;;;;;2.60;1.60;;;;;;;17.90;61.71;98015.25;226660;1276;22563;-74
2023/07/28 00:31:41;;;;;;;2.40;1.80;;;;;;;17.87;62.19;98013.28;226680;1276;22611;-73
2023/07/28 00:36:51;;;;;;;2.60;1.70;;;;;;;17.80;63.14;98012.10;226745;1272;22530;-74
2023/07/28 00:42:23;;;;;;;3.90;2.00;;;;;;;17.71;63.94;98012.33;226729;1276;22529;-74
2023/07/28 00:48:25;;;;;;;3.20;2.00;;;;;;;17.60;64.60;97996.29;226653;1276;22557;-75
2023/07/28 00:54:01;;;;;;;2.20;1.90;;;;;;;17.56;64.96;98000.40;226608;1276;22538;-75
2023/07/28 00:59:47;;;;;;;2.70;1.60;;;;;;;17.53;65.16;97992.73;226718;1269;22540;-75
2023/07/28 01:05:39;;;;;;;;;;;;;;;17.52;64.87;97992.28;226584;1276;25204;-74
2023/07/28 01:10:47;;;;;;;4.50;1.80;;;;;;;17.52;64.83;97986.20;226725;1275;22994;-74
2023/07/28 01:15:58;;;;;;;2.20;1.90;;;;;;;17.51;64.89;97987.95;226556;1275;22541;-75
2023/07/28 01:21:58;;;;;;;2.90;1.70;;;;;;;17.50;64.75;97984.87;226646;1276;22645;-76
2023/07/28 01:27:11;;;;;;;2.40;1.90;;;;;;;17.50;65.01;97977.00;226705;1275;22571;-75
2023/07/28 01:32:57;;;;;;;4.10;2.00;;;;;;;17.50;64.89;97971.89;226590;1276;22530;-75
2023/07/28 01:38:53;;;;;;;;;;;;;;;;;;;;;
2023/07/28 01:44:50;;;;;;;;;;;;;;;;;;;;;
2023/07/28 01:51:01;;;;;;;1.80;1.50;;;;;;;17.51;65.08;97955.59;226578;1276;25265;-76
2023/07/28 01:57:22;;;;;;;2.00;1.80;;;;;;;17.50;65.03;97950.73;226596;1276;22529;-74
2023/07/28 02:02:40;;;;;;;2.10;1.80;;;;;;;17.50;65.32;97942.34;226593;1276;22543;-75
2023/07/28 02:08:31;;;;;;;2.60;2.00;;;;;;;17.49;65.22;97941.05;226635;1276;22526;-75
2023/07/28 02:19:31;;;;;;;2.00;1.80;;;;;;;17.46;65.60;97940.02;226645;1276;24234;-74
2023/07/28 02:25:07;;;;;;;2.10;1.90;;;;;;;17.45;65.83;97939.94;226634;1274;25868;-74
2023/07/28 02:31:20;;;;;;;3.00;2.00;;;;;;;17.41;65.82;97938.61;226600;1276;22542;-74
2023/07/28 02:37:42;;;;;;;2.40;1.80;;;;;;;17.39;65.92;97935.98;226466;1276;22544;-74
2023/07/28 02:43:15;;;;;;;2.80;1.80;;;;;;;17.37;66.28;97937.44;226716;1275;25230;-75
2023/07/28 02:48:40;;;;;;;2.30;1.70;;;;;;;17.37;66.20;97938.19;226658;1276;22516;-75
2023/07/28 02:54:36;;;;;;;2.50;1.80;;;;;;;17.38;66.17;97938.35;226708;1275;24289;-74
2023/07/28 03:00:33;;;;;;;;;;;;;;;;;;;;;
2023/07/28 03:06:10;;;;;;;;;;;;;;;;;;;;;
2023/07/28 03:11:42;;;;;;;;;;;;;;;;;;;;;
2023/07/28 03:17:24;;;;;;;3.30;2.20;;;;;;;17.33;67.14;97905.42;226677;1276;24864;-75
2023/07/28 03:23:22;;;;;;;3.40;2.20;;;;;;;17.28;67.54;97903.98;226648;1276;22544;-75
2023/07/28 03:29:31;;;;;;;2.40;2.00;;;;;;;17.25;67.66;97904.60;226578;1276;25275;-74
2023/07/28 03:35:08;;;;;;;;;;;;;;;;;;;;;
2023/07/28 03:41:33;;;;;;;1.80;1.70;;;;;;;17.32;68.07;97919.98;226482;1276;22856;-74
2023/07/28 03:47:07;;;;;;;3.60;1.60;;;;;;;17.32;68.82;97923.79;226473;1276;24237;-75
2023/07/28 03:52:10;;;;;;;3.50;1.80;;;;;;;17.26;69.16;97916.88;226646;1272;22522;-74
2023/07/28 03:57:13;;;;;;;2.50;2.00;;;;;;;17.17;69.38;97919.73;226489;1268;22550;-75
2023/07/28 04:02:22;;;;;;;2.00;1.80;;;;;;;17.10;69.90;97901.08;226550;1276;24464;-74
2023/07/28 04:08:02;;;;;;;2.90;1.70;;;;;;;17.04;70.10;97900.12;226721;1276;22636;-74
2023/07/28 04:13:22;;;;;;;2.70;1.70;;;;;;;17.00;70.47;97906.48;226628;1276;24235;-75
2023/07/28 04:18:25;;;;;;;2.10;1.90;;;;;;;16.99;70.56;97906.31;226749;1272;22524;-74
2023/07/28 04:23:30;;;;;;;2.20;1.80;;;;;;;17.01;70.74;97901.10;226527;1275;22625;-74
2023/07/28 04:29:15;;;;;;;;;;;;;;;;;;;;;
2023/07/28 04:34:20;;;;;;;2.30;2.10;;;;;;;17.10;70.70;97885.27;226731;1272;22537;-75
2023/07/28 04:40:19;;;;;;;;;;;;;;;;;;;;;
2023/07/28 04:45:31;;;;;;;1.70;1.60;;;;;;;17.20;70.61;97893.94;226379;1276;22545;-75
2023/07/28 04:50:55;;;;;;;3.30;1.90;;;;;;;17.23;70.84;97886.10;226630;1275;22538;-74
2023/07/28 04:56:17;;;;;;;2.20;2.00;;;;;;;17.22;71.84;97888.11;226609;1276;22598;-74
2023/07/28 05:01:28;;;;;;;2.70;1.80;;;;;;;17.14;72.86;97892.89;226519;1267;22541;-74
2023/07/28 05:06:30;;;;;;;2.10;1.80;;;;;;;17.01;73.53;97898.70;226663;1276;24220;-75
2023/07/28 05:11:36;;;;;;;1.80;1.70;;;;;;;16.86;74.55;97899.23;226682;1276;22525;-74
2023/07/28 05:16:48;;;;;;;3.80;2.20;;;;;;;16.70;75.46;97906.77;226762;1276;22696;-73
2023/07/28 05:22:15;;;;;;;2.80;2.40;;;;;;;16.57;76.37;97903.97;226567;1275;22545;-75
2023/07/28 05:27:41;;;;;;;3.20;2.70;;;;;;;16.47;77.61;97891.40;226700;1276;22537;-75
2023/07/28 05:33:58;;;;;;;2.60;2.40;;;;;;;16.44;78.09;97889.89;226682;1276;22507;-75
2023/07/28 05:39:03;;;;;;;2.80;2.60;;;;;;;16.40;78.65;97894.59;226663;1275;25347;-77
2023/07/28 05:44:23;;;;;;;3.50;3.20;;;;;;;16.36;78.90;97893.71;226596;1265;22484;-77
2023/07/28 05:56:42;;;;;;;;;;;;;;;;;;;;;
2023/07/28 06:01:59;;;;;;;3.70;3.30;;;;;;;16.20;80.42;97897.92;226299;1257;22631;-74
2023/07/28 06:07:54;;;;;;;3.90;3.60;;;;;;;16.20;80.91;97901.92;226225;1260;22532;-73
2023/07/28 06:13:46;;;;;;;;;;;;;;;;;;;;;
2023/07/28 06:19:09;;;;;;;4.10;3.70;;;;;;;16.16;81.46;97919.33;225680;1261;23002;-72
2023/07/28 06:24:53;;;;;;;3.40;3.10;;;;;;;16.18;81.79;97917.48;226022;1262;22557;-73
2023/07/28 06:30:26;;;;;;;3.30;2.90;;;;;;;16.21;82.25;97918.00;225737;1260;22542;-73
2023/07/28 06:36:10;;;;;;;;;;;;;;;;;;;;;
2023/07/28 06:41:16;;;;;;;3.50;3.20;;;;;;;16.24;82.69;97929.23;225963;1256;22580;-74
2023/07/28 06:46:57;;;;;;;3.30;3.00;;;;;;;16.19;83.10;97928.84;226145;1257;22643;-74
2023/07/28 06:52:46;;;;;;;4.10;3.40;;;;;;;16.21;83.30;97933.92;226106;1260;23012;-74
2023/07/28 06:58:13;;;;;;;3.50;3.20;;;;;;;16.27;83.79;97928.90;226051;1268;22546;-73
2023/07/28 07:04:00;;;;;;;;;;;;;;;;;;;;;
2023/07/28 07:10:04;;;;;;;4.20;3.40;;;;;;;16.27;84.53;97923.94;225876;1264;22569;-75
2023/07/28 07:15:51;;;;;;;3.90;3.30;;;;;;;16.33;84.56;97923.27;226065;1267;22529;-73
2023/07/28 07:21:24;;;;;;;5.20;3.30;;;;;;;16.51;84.67;97930.88;226179;1269;22561;-73
2023/07/28 07:26:46;;;;;;;5.80;3.60;;;;;;;16.62;84.42;97937.97;226262;1259;22531;-73
2023/07/28 07:38:18;;;;;;;5.00;3.20;;;;;;;16.93;84.61;97941.35;226219;1261;22549;-75
2023/07/28 07:44:22;;;;;;;3.60;3.00;;;;;;;17.08;84.45;97938.86;226281;1257;22549;-73
2023/07/28 08:01:29;;;;;;;2.90;2.70;;;;;;;17.69;83.87;97955.20;226180;1269;22560;-72
2023/07/28 08:07:11;;;;;;;3.50;3.20;;;;;;;17.82;83.61;97955.79;226256;1261;23086;-75
2023/07/28 08:12:24;;;;;;;4.30;3.40;;;;;;;17.96;83.40;97948.11;225951;1254;22602;-75
2023/07/28 08:17:32;;;;;;;3.30;3.10;;;;;;;18.16;83.15;97949.16;226183;1269;22538;-75
2023/07/28 08:22:57;;;;;;;3.00;2.70;;;;;;;18.27;82.71;97951.41;226230;1254;22702;-75
2023/07/28 08:29:06;;;;;;;3.30;3.00;;;;;;;18.39;82.55;97955.98;226198;1270;22533;-73
2023/07/28 08:34:55;;;;;;;3.70;3.10;;;;;;;18.46;82.10;97966.83;226311;1258;22531;-74
2023/07/28 08:40:01;;;;;;;3.20;2.90;;;;;;;18.54;82.11;97965.51;226527;1264;22541;-75
2023/07/28 08:45:14;;;;;;;4.10;3.00;;;;;;;18.71;81.74;97964.38;226347;1267;24301;-74
2023/07/28 08:50:40;;;;;;;3.10;2.70;;;;;;;18.77;81.27;97958.64;226330;1269;22550;-73
2023/07/28 08:56:15;;;;;;;4.00;3.20;;;;;;;18.87;81.22;97954.34;226461;1271;22547;-73
2023/07/28 09:01:27;;;;;;;3.20;2.90;;;;;;;19.08;81.08;97953.62;226176;1253;22537;-74
2023/07/28 09:06:37;;;;;;;4.40;2.80;;;;;;;19.25;80.59;97958.28;226444;1257;22549;-76
2023/07/28 09:11:54;;;;;;;3.80;3.00;;;;;;;19.33;80.07;97970.45;225891;1269;22549;-74
2023/07/28 09:17:27;;;;;;;4.10;2.90;;;;;;;19.45;79.99;97969.80;226428;1263;22545;-73
2023/07/28 09:22:53;;;;;;;3.90;3.10;;;;;;;19.87;80.04;97963.59;226295;1270;22556;-73
2023/07/28 09:27:59;;;;;;;3.50;3.10;;;;;;;20.25;79.42;97955.27;226220;1257;24238;-74
2023/07/28 09:33:18;;;;;;;;;;;;;;;;;;;;;
2023/07/28 09:38:48;;;;;;;3.60;3.30;;;;;;;20.78;77.46;97964.72;226202;1270;22536;-73
2023/07/28 09:43:52;;;;;;;3.20;2.90;;;;;;;20.82;76.25;97962.55;226084;1263;22540;-74
2023/07/28 09:49:16;;;;;;;3.30;3.00;;;;;;;20.96;76.44;97964.39;225927;1261;22521;-74
2023/07/28 09:54:27;;;;;;;5.10;3.60;;;;;;;21.06;75.85;97961.01;226190;1271;22534;-74
2023/07/28 09:59:56;;;;;;;4.30;3.10;;;;;;;21.18;75.36;97962.85;226187;1254;22547;-75
2023/07/28 10:05:01;;;;;;;2.90;2.70;;;;;;;21.27;74.88;97964.05;226321;1269;22526;-73
2023/07/28 10:10:20;;;;;;;;;;;;;;;;;;;;;
2023/07/28 10:15:39;;;;;;;3.10;2.80;;;;;;;21.43;74.49;97966.92;226178;1252;22608;-75
2023/07/28 10:21:11;;;;;;;4.10;3.00;;;;;;;21.49;73.95;97963.89;226238;1260;22540;-74
2023/07/28 10:26:31;;;;;;;6.40;3.20;;;;;;;21.65;73.94;97967.38;226064;1273;22551;-75
2023/07/28 10:31:45;;;;;;;3.40;3.00;;;;;;;21.91;73.44;97984.67;226223;1273;22546;-75
2023/07/28 10:37:14;;;;;;;4.10;3.10;;;;;;;22.14;72.92;97984.52;226314;1254;23327;-75
2023/07/28 10:42:20;;;;;;;3.30;2.90;;;;;;;22.58;73.28;97984.16;226403;1269;22717;-75
2023/07/28 10:47:35;;;;;;;4.40;4.00;;;;;;;22.97;72.02;97980.41;226161;1275;187132;-76
2023/07/28 10:52:42;;;;;;;3.00;2.80;;;;;;;23.09;71.12;97980.80;226236;1267;23216;-74
2023/07/28 10:57:58;;;;;;;2.90;2.70;;;;;;;23.10;70.82;97985.91;226243;1272;25444;-77
2023/07/28 11:03:29;;;;;;;2.60;2.40;;;;;;;23.17;70.78;97988.40;225977;1270;22768;-75
2023/07/28 11:08:38;;;;;;;2.70;2.50;;;;;;;23.22;70.41;97984.57;226195;1254;23275;-73
2023/07/28 11:13:49;;;;;;;2.60;2.40;;;;;;;23.22;69.60;97984.47;226247;1255;22716;-74
2023/07/28 11:19:31;;;;;;;2.10;2.00;;;;;;;23.35;69.48;97980.19;226409;1268;24120;-74
2023/07/28 11:24:39;;;;;;;1.90;1.80;;;;;;;23.37;68.62;97979.41;226415;1272;22536;-75
2023/07/28 11:29:51;;;;;;;1.90;1.80;;;;;;;23.44;68.82;97987.14;226407;1269;22547;-73
2023/07/28 11:35:24;;;;;;;1.80;1.70;;;;;;;23.55;68.55;97980.39;226394;1270;22566;-74
2023/07/28 11:40:27;;;;;;;1.60;1.50;;;;;;;23.65;68.46;97983.21;226348;1269;22639;-74
2023/07/28 11:45:47;;;;;;;1.70;1.60;;;;;;;23.90;68.52;97984.06;226283;1269;22567;-74
2023/07/28 11:50:56;;;;;;;1.80;1.70;;;;;;;24.09;67.85;97981.38;226295;1270;22564;-74
2023/07/28 11:56:16;;;;;;;1.60;1.50;;;;;;;24.39;67.74;97980.14;227943;1268;22677;-75
2023/07/28 12:01:30;;;;;;;1.70;1.60;;;;;;;24.50;66.15;97986.70;226242;1257;24896;-75
2023/07/28 12:07:13;;;;;;;1.50;1.30;;;;;;;24.49;65.18;97983.91;226173;1275;23034;-73
2023/07/28 12:12:17;;;;;;;1.60;1.50;;;;;;;24.37;65.76;97985.15;226271;1272;22540;-74
2023/07/28 12:17:28;;;;;;;1.60;1.50;;;;;;;24.32;65.57;97983.45;226240;1252;24853;-74
2023/07/28 12:22:50;;;;;;;1.70;1.60;;;;;;;24.16;65.91;97980.46;226473;1256;22527;-75
2023/07/28 12:28:01;;;;;;;1.40;1.30;;;;;;;23.95;66.35;97986.09;226429;1269;22530;-74
2023/07/28 12:33:05;;;;;;;1.30;1.20;;;;;;;23.63;66.71;97992.61;226573;1267;22544;-74
2023/07/28 12:38:19;;;;;;;1.40;1.20;;;;;;;23.28;66.69;97999.86;226644;1273;22582;-73
2023/07/28 12:43:33;;;;;;;1.30;1.20;;;;;;;22.98;67.20;97993.50;226499;1272;23103;-74
2023/07/28 12:48:46;;;;;;;1.30;1.20;;;;;;;22.77;68.33;97992.98;226507;1267;22540;-73
2023/07/28 12:54:06;;;;;;;1.40;1.30;;;;;;;22.57;69.38;97982.55;226252;1275;22542;-74
2023/07/28 12:59:17;;;;;;;2.50;1.40;;;;;;;22.59;70.46;97988.14;226455;1275;22596;-73
2023/07/28 13:05:12;;;;;;;1.30;1.10;;;;;;;22.92;70.28;97984.40;226297;1275;22545;-73
2023/07/28 13:10:24;;;;;;;1.40;1.30;;;;;;;23.08;69.43;97983.58;226528;1272;22546;-73
2023/07/28 13:16:02;;;;;;;4.50;4.10;;;;;;;23.28;69.61;97985.03;226095;1275;24990;-74
2023/07/28 13:21:11;;;;;;;1.30;1.20;;;;;;;23.57;68.66;97987.30;226150;1270;22551;-74
2023/07/28 13:26:14;;;;;;;1.30;1.20;;;;;;;23.81;68.39;97980.42;226097;1269;22541;-74
2023/07/28 13:31:22;;;;;;;1.30;1.20;;;;;;;24.05;68.20;97978.81;226245;1272;22541;-74
2023/07/28 13:36:30;;;;;;;1.40;1.30;;;;;;;24.20;67.78;97983.67;226437;1273;22537;-74
2023/07/28 13:41:57;;;;;;;1.50;1.40;;;;;;;24.34;67.91;97981.33;226233;1275;24219;-74
2023/07/28 13:47:10;;;;;;;1.50;1.40;;;;;;;24.58;67.87;97981.70;226398;1272;22541;-75
2023/07/28 13:52:35;;;;;;;;;;;;;;;;;;;;;
2023/07/28 13:57:39;;;;;;;3.30;1.70;;;;;;;24.26;66.28;97988.24;226435;1259;22607;-74
2023/07/28 14:02:51;;;;;;;1.50;1.40;;;;;;;23.93;67.24;97977.61;226401;1253;22567;-74
2023/07/28 14:07:54;;;;;;;1.90;1.80;;;;;;;23.68;67.82;97973.72;226388;1274;22786;-74
2023/07/28 14:12:56;;;;;;;5.50;2.10;;;;;;;23.49;68.50;97958.98;226492;1275;22638;-74
2023/07/28 14:17:59;;;;;;;2.00;1.80;;;;;;;23.32;68.95;97973.49;226616;1272;25856;-74
2023/07/28 14:24:05;;;;;;;2.10;1.90;;;;;;;23.32;69.90;97972.31;226910;1275;25068;-75
2023/07/28 14:29:31;;;;;;;;;;;;;;;;;;;;;
2023/07/28 14:35:12;;;;;;;2.00;1.90;;;;;;;24.16;70.88;97950.18;226900;1272;22545;-74
2023/07/28 14:40:28;;;;;;;2.80;1.70;;;;;;;24.48;69.69;97942.02;226939;1275;22540;-75
2023/07/28 14:45:49;;;;;;;2.70;1.80;;;;;;;24.73;69.18;97937.05;227049;1263;22546;-74
2023/07/28 14:51:04;;;;;;;;;;;;;;;;;;;;;
2023/07/28 14:56:38;;;;;;;1.30;1.20;;;;;;;25.05;66.84;97934.65;226869;1272;25236;-74
2023/07/28 15:02:11;;;;;;;2.10;1.30;;;;;;;25.16;65.77;97927.42;226981;1275;22561;-74
2023/07/28 15:07:23;;;;;;;2.40;1.20;;;;;;;25.26;65.77;97926.16;227036;1270;22521;-75
2023/07/28 15:12:31;;;;;;;1.40;1.30;;;;;;;25.33;65.63;97933.11;227008;1275;22553;-73
2023/07/28 15:18:04;;;;;;;2.40;1.40;;;;;;;25.31;65.13;97944.80;226881;1275;22544;-75
2023/07/28 15:23:31;;;;;;;1.30;1.30;;;;;;;25.29;65.11;97929.31;226877;1272;22537;-73
2023/07/28 15:28:43;;;;;;;1.80;1.30;;;;;;;25.23;64.89;97924.23;227052;1272;22563;-74
2023/07/28 15:33:48;;;;;;;1.50;1.40;;;;;;;25.23;65.15;97918.89;226928;1274;22556;-74
2023/07/28 15:38:53;;;;;;;2.30;1.70;;;;;;;25.26;64.74;97922.45;226791;1275;22666;-74
2023/07/28 15:43:58;;;;;;;2.80;1.70;;;;;;;25.24;64.69;97912.05;226876;1269;22542;-74
2023/07/28 15:49:00;;;;;;;1.50;1.40;;;;;;;25.09;64.60;97920.45;226907;1269;22521;-75
2023/07/28 15:54:03;;;;;;;1.60;1.50;;;;;;;24.80;64.92;97927.84;226972;1267;22533;-74
2023/07/28 15:59:05;;;;;;;2.40;1.60;;;;;;;24.62;65.41;97926.84;226907;1272;22940;-75
2023/07/28 16:04:25;;;;;;;1.30;1.20;;;;;;;24.50;65.83;97938.89;226763;1273;22557;-75
2023/07/28 16:09:33;;;;;;;1.80;1.60;;;;;;;24.27;66.32;97944.33;226928;1275;22544;-75
2023/07/28 16:14:35;;;;;;;3.00;1.80;;;;;;;23.98;67.04;97958.03;226926;1272;24173;-76
2023/07/28 16:19:40;;;;;;;2.30;1.60;;;;;;;23.64;69.25;97972.43;226880;1273;24217;-76
2023/07/28 16:25:02;;;;;;;1.80;1.40;;;;;;;23.26;69.89;97971.95;226732;1275;24218;-76
2023/07/28 16:30:34;;;;;;;;;;;;;;;;;;;;;
2023/07/28 16:35:37;;;;;;;3.80;1.50;;;;;;;22.71;71.22;98013.17;227029;1272;22539;-81
2023/07/28 16:41:18;;;;;;;7.10;2.10;;;;;;;21.94;72.60;98054.78;226739;1275;22541;-80
2023/07/28 16:46:45;;;;;;;1.10;0.80;;;;;;;20.46;77.95;98019.15;226875;1275;23518;-80
2023/07/28 16:53:20;;;;;;;;;;;;;;;;;;;;;
2023/07/28 16:59:34;;;;;;;2.20;1.20;;;;;;;19.68;80.64;97996.45;226904;1275;23290;-81
2023/07/28 17:11:30;;;;;;;1.80;1.70;;;;;;;19.84;82.36;98008.16;226729;1275;22554;-81
2023/07/28 17:17:33;;;;;;;2.40;2.20;;;;;;;20.03;83.06;98006.94;226812;1275;24781;-80
2023/07/28 17:23:15;;;;;;;2.90;2.50;;;;;;;20.22;83.24;98010.31;226976;1275;23126;-80
2023/07/28 17:28:41;;;;;;;3.00;2.70;;;;;;;20.29;83.39;98019.06;226882;1275;22517;-81
2023/07/28 17:34:31;;;;;;;3.20;1.90;;;;;;;20.29;83.39;98026.67;226893;1275;22553;-79
2023/07/28 17:39:39;;;;;;;2.50;1.90;;;;;;;20.20;83.21;98035.20;226809;1275;22541;-79
2023/07/28 17:44:54;;;;;;;3.50;1.90;;;;;;;20.07;83.55;98031.51;227071;1275;22524;-79
2023/07/28 17:49:57;;;;;;;3.40;2.10;;;;;;;19.97;83.76;98037.71;226869;1272;22529;-80
2023/07/28 17:55:00;;;;;;;3.60;2.40;;;;;;;19.89;84.04;98048.16;226910;1275;22552;-79
2023/07/28 18:00:14;;;;;;;2.50;2.20;;;;;;;19.80;84.29;98049.48;226909;1269;22575;-79
2023/07/28 18:05:55;;;;;;;3.70;1.90;;;;;;;19.67;84.34;98056.33;226884;1275;23007;-79
2023/07/28 18:11:36;;;;;;;1.80;1.60;;;;;;;19.52;84.46;98055.27;226215;1279;22604;-79
2023/07/28 18:17:41;;;;;;;2.50;1.90;;;;;;;19.40;84.59;98049.67;226150;1277;22483;-79
2023/07/28 18:22:45;;;;;;;2.70;2.30;;;;;;;19.32;84.95;98050.81;225585;1280;22628;-79
2023/07/28 18:28:42;;;;;;;3.30;2.40;;;;;;;19.22;85.15;98054.46;225623;1264;22547;-79
2023/07/28 18:33:54;;;;;;;;;;;;;;;;;;;;;
2023/07/28 18:39:49;;;;;;;;;;;;;;;;;;;;;
2023/07/28 18:45:03;;;;;;;3.50;2.80;;;;;;;18.93;85.75;98056.90;226610;1275;22602;-79
2023/07/28 18:51:02;;;;;;;4.40;3.00;;;;;;;18.84;85.97;98062.58;227055;1275;22534;-78
2023/07/28 18:56:57;;;;;;;3.40;3.10;;;;;;;18.75;86.13;98061.77;226977;1275;22497;-77
2023/07/28 19:02:04;;;;;;;3.10;2.80;;;;;;;18.68;86.35;98060.17;227044;1275;22588;-77
2023/07/28 19:07:36;;;;;;;4.10;3.20;;;;;;;18.63;86.69;98062.61;226823;1275;25245;-78
2023/07/28 19:12:59;;;;;;;4.60;3.60;;;;;;;18.63;86.97;98069.61;226928;1266;22532;-78
2023/07/28 19:19:03;;;;;;;7.40;4.00;;;;;;;18.63;86.96;98073.20;226885;1272;22536;-78
2023/07/28 19:24:25;;;;;;;;;;;;;;;;;;;;;
2023/07/28 19:29:47;;;;;;;5.30;3.10;;;;;;;18.76;87.54;98111.82;226979;1275;24263;-79
2023/07/28 19:35:44;;;;;;;4.00;3.30;;;;;;;18.93;87.71;98106.05;226792;1275;22561;-79
2023/07/28 19:42:01;;;;;;;6.50;3.00;;;;;;;19.02;87.32;98101.27;226936;1275;22535;-79
2023/07/28 19:53:03;;;;;;;6.30;3.50;;;;;;;18.93;87.02;98104.34;226712;1275;22533;-78
2023/07/28 19:59:00;;;;;;;6.40;4.40;;;;;;;18.90;87.18;98109.23;226825;1275;22547;-79
2023/07/28 20:04:15;;;;;;;4.40;4.00;;;;;;;18.86;87.30;98108.30;226842;1272;22551;-78
2023/07/28 20:09:29;;;;;;;;;;;;;;;;;;;;;
2023/07/28 20:15:01;;;;;;;;;;;;;;;;;;;;;
2023/07/28 20:20:13;;;;;;;5.40;4.40;;;;;;;18.87;87.91;98124.95;226867;1272;22523;-78
2023/07/28 20:25:48;;;;;;;5.70;5.20;;;;;;;18.84;87.95;98124.41;226766;1275;22560;-78
2023/07/28 20:31:12;;;;;;;5.60;4.70;;;;;;;18.78;87.83;98128.38;226687;1275;24321;-78
2023/07/28 20:37:06;;;;;;;;;;;;;;;;;;;;;
2023/07/28 20:42:55;;;;;;;7.40;6.20;;;;;;;18.65;87.88;98127.48;226795;1275;22539;-78
2023/07/28 20:48:09;;;;;;;6.60;5.40;;;;;;;18.62;88.00;98133.50;227034;1272;22575;-78
2023/07/28 20:54:28;;;;;;;7.70;5.90;;;;;;;18.57;88.06;98127.01;226817;1275;22534;-78
2023/07/28 20:59:37;;;;;;;10.00;8.50;;;;;;;18.48;88.28;98131.59;226964;1272;25268;-78
2023/07/28 21:05:16;;;;;;;8.80;7.90;;;;;;;18.39;88.38;98130.33;226978;1272;25325;-79
2023/07/28 21:11:00;;;;;;;;;;;;;;;;;;;;;
2023/07/28 21:16:17;;;;;;;9.00;7.10;;;;;;;18.19;88.82;98132.66;226977;1272;22576;-77
2023/07/28 21:21:43;;;;;;;8.80;7.40;;;;;;;18.09;88.90;98130.05;226847;1275;22568;-77
2023/07/28 21:27:34;;;;;;;7.70;7.00;;;;;;;17.98;88.83;98139.23;226799;1275;22534;-77
2023/07/28 21:39:31;;;;;;;7.80;7.00;;;;;;;17.80;89.22;98146.05;226302;1278;24267;-77
2023/07/28 21:44:37;;;;;;;8.60;7.50;;;;;;;17.74;89.19;98150.45;226121;1275;22554;-77
2023/07/28 21:50:11;;;;;;;6.70;6.10;;;;;;;17.67;89.38;98158.23;226145;1278;22580;-78
2023/07/28 21:55:17;;;;;;;9.60;6.90;;;;;;;17.62;89.78;98167.18;226317;1278;22545;-78
2023/07/28 22:01:22;;;;;;;7.60;6.90;;;;;;;17.58;89.79;98169.69;226435;1275;22581;-78
2023/07/28 22:07:16;;;;;;;8.70;7.80;;;;;;;17.55;89.78;98174.55;226869;1275;22617;-78
2023/07/28 22:12:51;;;;;;;8.50;7.70;;;;;;;17.51;89.66;98172.37;226921;1275;22680;-78
2023/07/28 22:18:58;;;;;;;9.20;7.30;;;;;;;17.44;89.65;98186.23;226937;1269;22561;-78
2023/07/28 22:25:01;;;;;;;7.80;7.00;;;;;;;17.30;89.40;98192.11;226996;1275;22529;-79
2023/07/28 22:30:33;;;;;;;6.50;5.90;;;;;;;17.17;89.55;98180.52;226779;1275;22541;-77
2023/07/28 22:41:35;;;;;;;;;;;;;;;;;;;;;
2023/07/28 22:47:18;;;;;;;7.30;6.10;;;;;;;17.05;90.17;98188.56;222844;1275;5402604;-78
2023/07/28 22:52:53;;;;;;;8.10;6.00;;;;;;;17.03;90.23;98196.27;226915;1275;22533;-78
2023/07/28 22:59:08;;;;;;;10.40;6.40;;;;;;;17.00;90.23;98211.16;226833;1275;22547;-78
2023/07/28 23:04:29;;;;;;;7.90;6.20;;;;;;;16.96;90.34;98211.36;226839;1275;22537;-78
2023/07/28 23:10:17;;;;;;;;;;;;;;;;;;;;;
2023/07/28 23:15:54;;;;;;;;;;;;;;;;;;;;;
2023/07/28 23:35:12;;;;;;;7.40;6.70;;;;;;;16.93;90.76;98206.13;226818;1269;22536;-78
2023/07/28 23:47:41;;;;;;;7.80;6.80;;;;;;;16.90;90.90;98200.65;226901;1275;22536;-78
